createdAt,value
2023-04-25T00:02:47.404Z,10.07
2023-04-25T00:05:52.628Z,9.23
2023-04-25T00:08:56.589Z,6.33
2023-04-25T00:11:59.191Z,8.00
2023-04-25T00:15:01.916Z,8.03
2023-04-25T00:18:05.010Z,8.13
2023-04-25T00:21:09.015Z,6.47
2023-04-25T00:24:11.589Z,9.40
2023-04-25T00:27:14.166Z,6.73
2023-04-25T00:30:16.817Z,8.37
2023-04-25T00:33:19.437Z,6.77
2023-04-25T00:36:23.404Z,11.57
2023-04-25T00:39:25.993Z,9.33
2023-04-25T00:42:29.097Z,11.07
2023-04-25T00:45:31.949Z,11.80
2023-04-25T00:48:34.535Z,18.67
2023-04-25T00:51:38.913Z,16.03
2023-04-25T00:54:41.896Z,12.93
2023-04-25T00:57:44.961Z,16.33
2023-04-25T01:00:48.506Z,15.93
2023-04-25T01:03:52.123Z,15.70
2023-04-25T01:06:56.488Z,16.03
2023-04-25T01:09:59.794Z,22.67
2023-04-25T01:13:02.433Z,17.40
2023-04-25T01:16:05.529Z,22.37
2023-04-25T01:19:12.092Z,19.63
2023-04-25T01:22:16.569Z,23.60
2023-04-25T01:25:19.376Z,22.87
2023-04-25T01:28:22.964Z,27.70
2023-04-25T01:31:25.931Z,26.20
2023-04-25T01:34:28.593Z,25.40
2023-04-25T01:37:32.597Z,23.97
2023-04-25T01:40:35.996Z,34.60
2023-04-25T01:43:38.728Z,28.50
2023-04-25T01:46:41.555Z,24.60
2023-04-25T01:49:44.195Z,39.17
2023-04-25T01:52:48.262Z,25.47
2023-04-25T01:55:50.821Z,19.20
2023-04-25T01:58:53.774Z,27.67
2023-04-25T02:01:56.464Z,29.47
2023-04-25T02:04:59.103Z,29.60
2023-04-25T02:08:03.083Z,27.63
2023-04-25T02:11:05.793Z,25.23
2023-04-25T02:14:08.383Z,29.10
2023-04-25T02:17:11.093Z,26.37
2023-04-25T02:20:14.027Z,33.23
2023-04-25T02:23:19.971Z,28.90
2023-04-25T02:26:24.617Z,35.73
2023-04-25T02:29:27.194Z,27.10
2023-04-25T02:32:29.844Z,18.93
2023-04-25T02:35:32.519Z,24.63
2023-04-25T02:38:36.482Z,26.63
2023-04-25T02:41:39.097Z,29.83
2023-04-25T02:44:41.688Z,23.63
2023-04-25T02:47:44.367Z,30.07
2023-04-25T02:50:47.005Z,28.53
2023-04-25T02:53:51.149Z,30.63
2023-04-25T02:56:54.065Z,25.90
2023-04-25T02:59:56.650Z,36.93
2023-04-25T03:02:59.327Z,28.70
2023-04-25T03:06:02.082Z,29.37
2023-04-25T03:09:06.053Z,25.80
2023-04-25T03:12:08.663Z,26.90
2023-04-25T03:15:11.977Z,29.17
2023-04-25T03:18:14.543Z,27.00
2023-04-25T03:21:17.128Z,26.47
2023-04-25T03:24:21.697Z,22.10
2023-04-25T03:27:24.359Z,25.27
2023-04-25T03:30:27.098Z,20.27
2023-04-25T03:33:29.670Z,19.03
2023-04-25T03:36:33.610Z,25.13
2023-04-25T03:39:38.553Z,32.97
2023-04-25T03:42:41.791Z,22.67
2023-04-25T03:45:45.540Z,30.37
2023-04-25T03:48:48.142Z,25.00
2023-04-25T03:51:50.806Z,20.93
2023-04-25T03:54:54.751Z,19.17
2023-04-25T03:57:58.867Z,30.83
2023-04-25T04:01:03.429Z,23.30
2023-04-25T04:04:06.344Z,21.17
2023-04-25T04:07:09.209Z,23.00
2023-04-25T04:10:13.865Z,22.20
2023-04-25T04:13:16.439Z,20.77
2023-04-25T04:16:19.699Z,18.93
2023-04-25T04:19:22.375Z,26.07
2023-04-25T04:22:25.652Z,20.33
2023-04-25T04:25:29.641Z,25.20
2023-04-25T04:28:32.277Z,34.10
2023-04-25T04:31:34.933Z,22.67
2023-04-25T04:34:38.372Z,24.03
2023-04-25T04:37:40.978Z,32.10
2023-04-25T04:40:45.058Z,14.07
2023-04-25T04:43:47.826Z,19.03
2023-04-25T04:46:51.475Z,19.63
2023-04-25T04:49:54.090Z,23.50
2023-04-25T04:52:56.655Z,19.80
2023-04-25T04:56:00.899Z,25.77
2023-04-25T04:59:03.826Z,19.73
2023-04-25T05:02:06.428Z,16.40
2023-04-25T05:05:09.837Z,18.93
2023-04-25T05:08:12.425Z,16.23
2023-04-25T05:11:16.398Z,24.80
2023-04-25T05:14:19.329Z,14.10
2023-04-25T05:17:22.063Z,16.63
2023-04-25T05:20:24.923Z,24.00
2023-04-25T05:23:28.762Z,18.10
2023-04-25T05:26:32.942Z,13.47
2023-04-25T05:29:36.153Z,17.93
2023-04-25T05:32:38.757Z,13.03
2023-04-25T05:35:41.483Z,19.33
2023-04-25T05:38:44.076Z,17.70
2023-04-25T05:41:47.996Z,22.53
2023-04-25T05:44:50.614Z,26.43
2023-04-25T05:47:54.436Z,19.40
2023-04-25T05:50:57.022Z,19.23
2023-04-25T05:53:59.610Z,16.53
2023-04-25T05:57:03.978Z,21.47
2023-04-25T06:00:10.214Z,19.63
2023-04-25T06:03:15.861Z,18.03
2023-04-25T06:06:19.706Z,20.37
2023-04-25T06:09:22.291Z,26.07
2023-04-25T06:12:26.246Z,15.47
2023-04-25T06:15:29.155Z,20.90
2023-04-25T06:18:31.856Z,19.70
2023-04-25T06:21:34.463Z,16.73
2023-04-25T06:24:37.376Z,14.87
2023-04-25T06:27:41.312Z,14.20
2023-04-25T06:30:43.902Z,16.77
2023-04-25T06:33:46.464Z,15.00
2023-04-25T06:36:49.059Z,20.80
2023-04-25T06:39:51.658Z,14.63
2023-04-25T06:42:55.597Z,21.60
2023-04-25T06:45:58.331Z,22.17
2023-04-25T06:49:01.015Z,12.73
2023-04-25T06:52:03.840Z,11.37
2023-04-25T06:55:07.255Z,15.83
2023-04-25T06:58:11.247Z,24.30
2023-04-25T07:01:13.858Z,22.03
2023-04-25T07:04:16.607Z,13.53
2023-04-25T07:07:19.786Z,18.63
2023-04-25T07:10:22.860Z,14.07
2023-04-25T07:13:26.842Z,14.40
2023-04-25T07:16:29.641Z,12.77
2023-04-25T07:19:32.248Z,12.30
2023-04-25T07:22:34.971Z,14.80
2023-04-25T07:25:37.553Z,15.67
2023-04-25T07:28:41.510Z,17.43
2023-04-25T07:31:44.220Z,19.03
2023-04-25T07:34:46.867Z,16.53
2023-04-25T07:37:49.448Z,15.50
2023-04-25T07:40:52.228Z,16.60
2023-04-25T07:43:56.210Z,12.40
2023-04-25T07:46:58.787Z,19.60
2023-04-25T07:50:01.522Z,15.87
2023-04-25T07:53:04.171Z,15.67
2023-04-25T07:56:07.476Z,27.60
2023-04-25T07:59:11.705Z,14.00
2023-04-25T08:02:14.418Z,13.03
2023-04-25T08:05:19.573Z,10.23
2023-04-25T08:08:23.895Z,13.03
2023-04-25T08:11:26.826Z,10.87
2023-04-25T08:14:36.531Z,21.90
2023-04-25T08:17:39.415Z,17.53
2023-04-25T08:20:42.565Z,14.33
2023-04-25T08:23:45.138Z,11.37
2023-04-25T08:26:47.797Z,11.27
2023-04-25T08:29:51.993Z,11.40
2023-04-25T08:32:54.795Z,12.03
2023-04-25T08:35:57.904Z,13.73
2023-04-25T08:39:00.880Z,10.57
2023-04-25T08:42:08.114Z,17.77
2023-04-25T08:45:12.818Z,13.67
2023-04-25T08:48:16.811Z,15.47
2023-04-25T08:51:25.461Z,18.70
2023-04-25T08:54:34.273Z,13.30
2023-04-25T08:57:39.145Z,11.40
2023-04-25T09:00:43.221Z,14.33
2023-04-25T09:03:46.114Z,14.00
2023-04-25T09:06:48.876Z,14.67
2023-04-25T09:09:51.479Z,9.40
2023-04-25T09:13:09.667Z,10.33
2023-04-25T09:16:15.566Z,9.50
2023-04-25T09:19:38.066Z,12.53
2023-04-25T09:22:43.761Z,13.73
2023-04-25T09:25:46.761Z,13.60
2023-04-25T09:28:49.865Z,16.60
2023-04-25T09:31:53.921Z,7.73
2023-04-25T09:34:57.955Z,16.27
2023-04-25T09:38:01.152Z,6.27
2023-04-25T09:41:03.829Z,16.90
2023-04-25T09:44:06.512Z,12.50
2023-04-25T09:47:12.459Z,10.10
2023-04-25T09:50:19.980Z,8.60
2023-04-25T09:53:22.554Z,11.37
2023-04-25T09:56:26.699Z,12.10
2023-04-25T09:59:32.507Z,10.90
2023-04-25T10:02:37.787Z,13.13
2023-04-25T10:05:41.385Z,12.80
2023-04-25T10:08:45.197Z,10.03
2023-04-25T10:11:48.958Z,8.77
2023-04-25T10:14:52.284Z,8.27
2023-04-25T10:17:56.594Z,7.10
2023-04-25T10:21:02.062Z,10.37
2023-04-25T10:24:05.375Z,10.73
2023-04-25T10:27:08.493Z,9.83
2023-04-25T10:30:16.247Z,10.13
2023-04-25T10:33:20.723Z,10.10
2023-04-25T10:36:24.978Z,10.47
2023-04-25T10:39:29.702Z,9.20
2023-04-25T10:42:32.474Z,11.40
2023-04-25T10:45:53.516Z,7.47
2023-04-25T10:48:59.062Z,9.43
2023-04-25T10:52:29.070Z,9.30
2023-04-25T10:55:52.412Z,8.60
2023-04-25T10:59:06.448Z,10.20
2023-04-25T11:02:14.428Z,8.53
2023-04-25T11:05:25.678Z,8.30
2023-04-25T11:08:43.698Z,8.90
2023-04-25T11:11:55.833Z,11.87
2023-04-25T11:15:02.215Z,6.00
2023-04-25T11:18:05.083Z,10.73
2023-04-25T11:21:09.096Z,11.13
2023-04-25T11:24:12.452Z,7.73
2023-04-25T11:27:15.120Z,9.93
2023-04-25T11:30:18.344Z,7.03
2023-04-25T11:33:25.442Z,7.73
2023-04-25T11:36:29.405Z,9.33
2023-04-25T11:39:32.249Z,8.17
2023-04-25T11:42:35.213Z,7.83
2023-04-25T11:45:38.846Z,9.40
2023-04-25T11:48:42.149Z,5.03
2023-04-25T11:51:47.824Z,7.27
2023-04-25T11:54:50.483Z,9.23
2023-04-25T11:57:53.111Z,10.93
2023-04-25T12:00:59.507Z,7.27
2023-04-25T12:04:13.633Z,7.20
2023-04-25T12:07:19.741Z,3.57
2023-04-25T12:10:22.844Z,5.70
2023-04-25T12:13:26.876Z,7.93
2023-04-25T12:16:29.532Z,8.80
2023-04-25T12:19:35.156Z,10.77
2023-04-25T12:22:39.156Z,7.40
2023-04-25T12:25:43.350Z,7.70
2023-04-25T12:28:48.110Z,9.30
2023-04-25T12:31:52.208Z,9.53
2023-04-25T12:34:54.923Z,8.60
2023-04-25T12:37:58.873Z,4.20
2023-04-25T12:41:01.958Z,6.90
2023-04-25T12:44:04.610Z,6.90
2023-04-25T12:47:07.705Z,8.60
2023-04-25T12:50:11.429Z,5.73
2023-04-25T12:53:15.390Z,8.53
2023-04-25T12:56:18.051Z,6.87
2023-04-25T12:59:21.421Z,4.47
2023-04-25T13:02:24.231Z,8.07
2023-04-25T13:05:27.257Z,6.20
2023-04-25T13:08:31.979Z,6.37
2023-04-25T13:11:34.584Z,6.00
2023-04-25T13:14:37.182Z,5.97
2023-04-25T13:17:39.848Z,6.47
2023-04-25T13:20:42.536Z,13.23
2023-04-25T13:23:47.573Z,10.90
2023-04-25T13:26:50.263Z,9.17
2023-04-25T13:29:52.842Z,11.67
2023-04-25T13:32:57.256Z,6.00
2023-04-25T13:35:59.918Z,11.60
2023-04-25T13:39:05.404Z,6.87
2023-04-25T13:42:07.985Z,4.47
2023-04-25T13:45:11.154Z,10.73
2023-04-25T13:48:13.812Z,8.50
2023-04-25T13:51:20.759Z,13.93
2023-04-25T13:54:24.689Z,6.27
2023-04-25T13:57:27.380Z,9.50
2023-04-25T14:00:30.074Z,8.60
2023-04-25T14:03:33.132Z,16.63
2023-04-25T14:06:36.345Z,9.00
2023-04-25T14:09:40.319Z,12.00
2023-04-25T14:12:42.929Z,12.53
2023-04-25T14:15:45.509Z,6.30
2023-04-25T14:18:48.177Z,8.63
2023-04-25T14:21:50.911Z,4.70
2023-04-25T14:24:54.869Z,3.97
2023-04-25T14:27:57.507Z,4.77
2023-04-25T14:31:00.309Z,11.43
2023-04-25T14:34:04.116Z,10.23
2023-04-25T14:37:06.816Z,6.30
2023-04-25T14:40:12.985Z,6.47
2023-04-25T14:43:15.758Z,6.80
2023-04-25T14:46:18.522Z,11.23
2023-04-25T14:49:21.459Z,14.70
2023-04-25T14:52:24.215Z,9.43
2023-04-25T14:55:28.221Z,11.90
2023-04-25T14:58:31.252Z,9.13
2023-04-25T15:01:33.932Z,6.43
2023-04-25T15:04:36.769Z,8.37
2023-04-25T15:07:40.337Z,9.13
2023-04-25T15:10:44.553Z,7.20
2023-04-25T15:13:47.550Z,13.80
2023-04-25T15:16:50.199Z,9.83
2023-04-25T15:19:52.825Z,11.70
2023-04-25T15:22:55.600Z,9.80
2023-04-25T15:25:59.548Z,4.33
2023-04-25T15:29:02.125Z,6.70
2023-04-25T15:32:04.978Z,7.93
2023-04-25T15:35:08.800Z,6.53
2023-04-25T15:38:12.270Z,9.13
2023-04-25T15:41:16.249Z,23.33
2023-04-25T15:44:18.921Z,12.87
2023-04-25T15:47:21.591Z,9.57
2023-04-25T15:50:25.093Z,10.40
2023-04-25T15:53:27.724Z,15.17
2023-04-25T15:56:31.957Z,10.63
2023-04-25T15:59:34.562Z,11.77
2023-04-25T16:02:37.503Z,12.20
2023-04-25T16:05:41.022Z,9.53
2023-04-25T16:08:44.094Z,13.83
2023-04-25T16:11:49.385Z,12.43
2023-04-25T16:14:53.125Z,9.43
2023-04-25T16:17:56.678Z,8.70
2023-04-25T16:21:00.603Z,6.33
2023-04-25T16:24:03.248Z,10.87
2023-04-25T16:27:07.251Z,9.57
2023-04-25T16:30:11.782Z,6.77
2023-04-25T16:33:14.430Z,10.00
2023-04-25T16:36:17.223Z,6.47
2023-04-25T16:39:21.775Z,7.47
2023-04-25T16:42:25.831Z,9.13
2023-04-25T16:45:28.447Z,10.37
2023-04-25T16:48:31.252Z,6.93
2023-04-25T16:51:33.948Z,5.07
2023-04-25T16:54:37.227Z,8.77
2023-04-25T16:57:41.314Z,10.77
2023-04-25T17:00:44.081Z,10.77
2023-04-25T17:03:47.522Z,7.97
2023-04-25T17:06:50.262Z,7.53
2023-04-25T17:09:52.841Z,7.83
2023-04-25T17:12:56.956Z,7.87
2023-04-25T17:15:59.664Z,11.50
2023-04-25T17:19:02.243Z,4.50
2023-04-25T17:22:04.934Z,9.77
2023-04-25T17:25:09.566Z,7.33
2023-04-25T17:28:13.915Z,7.97
2023-04-25T17:31:16.800Z,11.03
2023-04-25T17:34:19.436Z,8.57
2023-04-25T17:37:22.472Z,11.73
2023-04-25T17:40:25.800Z,8.53
2023-04-25T17:43:29.823Z,5.23
2023-04-25T17:46:32.461Z,8.07
2023-04-25T17:49:35.108Z,7.77
2023-04-25T17:52:38.541Z,7.40
2023-04-25T17:55:43.511Z,7.70
2023-04-25T17:58:47.782Z,6.87
2023-04-25T18:01:50.523Z,4.47
2023-04-25T18:04:53.413Z,4.07
2023-04-25T18:07:56.301Z,6.17
2023-04-25T18:10:58.941Z,8.07
2023-04-25T18:14:02.981Z,11.47
2023-04-25T18:17:07.103Z,13.77
2023-04-25T18:20:13.680Z,9.37
2023-04-25T18:23:16.363Z,10.33
2023-04-25T18:26:20.133Z,9.47
2023-04-25T18:29:33.044Z,26.07
2023-04-25T18:32:36.801Z,42.37
2023-04-25T18:35:45.141Z,42.50
2023-04-25T18:38:56.234Z,88.33
2023-04-25T18:42:04.643Z,70.53
2023-04-25T18:45:11.397Z,13.83
2023-04-25T18:48:14.298Z,26.37
2023-04-25T18:51:17.167Z,31.50
2023-04-25T18:54:19.751Z,22.63
2023-04-25T18:57:22.366Z,13.23
2023-04-25T19:00:26.390Z,8.33
2023-04-25T19:03:29.582Z,11.53
2023-04-25T19:06:32.662Z,8.20
2023-04-25T19:09:35.275Z,11.52
2023-04-25T19:12:37.876Z,9.67
2023-04-25T19:15:41.896Z,11.40
2023-04-25T19:18:45.056Z,12.57
2023-04-25T19:21:47.686Z,8.93
2023-04-25T19:24:55.750Z,9.67
2023-04-25T19:28:07.524Z,11.63
2023-04-25T19:31:11.801Z,8.50
2023-04-25T19:34:14.836Z,17.93
2023-04-25T19:37:17.956Z,13.07
2023-04-25T19:40:22.659Z,15.00
2023-04-25T19:43:25.239Z,8.87
2023-04-25T19:46:29.278Z,13.93
2023-04-25T19:49:32.081Z,7.27
2023-04-25T19:52:35.802Z,14.10
2023-04-25T19:55:38.530Z,14.80
2023-04-25T19:58:41.207Z,8.10
2023-04-25T20:01:45.286Z,12.97
2023-04-25T20:04:47.932Z,16.10
2023-04-25T20:07:50.536Z,10.90
2023-04-25T20:10:53.136Z,12.57
2023-04-25T20:13:56.217Z,6.93
2023-04-25T20:17:00.215Z,13.70
2023-04-25T20:20:06.180Z,7.40
2023-04-25T20:23:08.794Z,13.60
2023-04-25T20:26:12.609Z,14.13
2023-04-25T20:29:15.219Z,12.57
2023-04-25T20:32:19.217Z,11.20
2023-04-25T20:35:22.912Z,13.37
2023-04-25T20:38:25.881Z,11.53
2023-04-25T20:41:28.526Z,9.03
2023-04-25T20:44:32.018Z,9.70
2023-04-25T20:47:36.056Z,10.30
2023-04-25T20:50:39.069Z,11.80
2023-04-25T20:53:41.734Z,11.70
2023-04-25T20:56:44.770Z,12.17
2023-04-25T20:59:48.974Z,13.70
2023-04-25T21:02:55.002Z,11.90
2023-04-25T21:05:57.695Z,8.20
2023-04-25T21:09:00.332Z,11.47
2023-04-25T21:12:03.483Z,15.10
2023-04-25T21:15:06.882Z,10.07
2023-04-25T21:18:11.088Z,11.00
2023-04-25T21:21:13.734Z,7.70
2023-04-25T21:24:16.370Z,7.93
2023-04-25T21:27:18.951Z,13.93
2023-04-25T21:30:23.785Z,6.37
2023-04-25T21:33:28.054Z,6.50
2023-04-25T21:36:30.760Z,5.50
2023-04-25T21:39:33.357Z,8.33
2023-04-25T21:42:36.212Z,12.23
2023-04-25T21:45:53.711Z,9.30
2023-04-25T21:49:02.813Z,6.77
2023-04-25T21:52:05.548Z,11.57
2023-04-25T21:55:09.266Z,9.60
2023-04-25T21:58:11.860Z,7.80
2023-04-25T22:01:15.776Z,5.77
2023-04-25T22:04:20.556Z,11.27
2023-04-25T22:07:23.305Z,11.50
2023-04-25T22:10:26.442Z,8.10
2023-04-25T22:13:29.068Z,8.10
2023-04-25T22:16:31.687Z,16.43
2023-04-25T22:19:36.821Z,22.00
2023-04-25T22:22:40.760Z,24.10
2023-04-25T22:25:43.354Z,20.83
2023-04-25T22:28:46.291Z,10.43
2023-04-25T22:31:48.941Z,6.60
2023-04-25T22:34:52.999Z,5.73
2023-04-25T22:37:55.648Z,5.17
2023-04-25T22:40:58.271Z,5.40
2023-04-25T22:44:00.865Z,7.27
2023-04-25T22:47:03.441Z,8.33
2023-04-25T22:50:13.092Z,7.77
2023-04-25T22:53:16.245Z,4.90
2023-04-25T22:56:18.836Z,3.30
2023-04-25T22:59:21.628Z,5.37
2023-04-25T23:02:24.932Z,7.47
2023-04-25T23:05:29.030Z,6.43
2023-04-25T23:08:31.727Z,4.23
2023-04-25T23:11:34.354Z,5.90
2023-04-25T23:14:36.930Z,8.43
2023-04-25T23:17:39.531Z,9.60
2023-04-25T23:20:43.583Z,9.37
2023-04-25T23:23:46.197Z,4.83
2023-04-25T23:26:48.779Z,7.77
2023-04-25T23:29:56.497Z,7.43
2023-04-25T23:32:59.174Z,8.60
2023-04-25T23:36:03.293Z,8.90
2023-04-25T23:39:05.936Z,10.73
2023-04-25T23:42:08.842Z,15.47
2023-04-25T23:45:12.448Z,7.93
2023-04-25T23:48:15.876Z,12.53
2023-04-25T23:51:19.976Z,9.63
2023-04-25T23:54:22.739Z,10.77
2023-04-25T23:57:25.458Z,14.73
